Eustis, Maine
Current Conditions -  °F | °C
As of 8:04 PM on Thursday 18 Dec 2014 (Local Time) from KBML Reporting Station
Overcast Overcast  
Wind Chill: 21°   Ceiling: 1500
Heat Index: 29°   Visibility: 8mi
Dew Point: 24°   Wind: 8mph
Humidity: 82%   Direction: 300°WNW
Pressure: 29.79"   Gusts: NA
Location:  45.22°N, 70.48°W
Report Text: KBML 190104Z AUTO 30007KT 8SM BKN015 OVC019 M02/M04 A2979 RMK AO2 T10171044
Loading
Personal Weather Stations






























Interactive Weather Map New forecast layout! Learn more

10-Day Weather Forecast

Advertisements
Track Severe Weather on mobile